sensor_id;sensor_type;location;lat;lon;timestamp;P1;durP1;ratioP1;P2;durP2;ratioP2
7031;SDS011;3557;48.880;8.328;2023-04-23T00:01:28;6.40;;;5.47;;
7031;SDS011;3557;48.880;8.328;2023-04-23T00:03:59;10.93;;;6.05;;
7031;SDS011;3557;48.880;8.328;2023-04-23T00:06:27;8.73;;;6.10;;
7031;SDS011;3557;48.880;8.328;2023-04-23T00:08:54;8.35;;;6.05;;
7031;SDS011;3557;48.880;8.328;2023-04-23T00:11:23;7.28;;;5.90;;
7031;SDS011;3557;48.880;8.328;2023-04-23T00:13:51;7.82;;;5.88;;
7031;SDS011;3557;48.880;8.328;2023-04-23T00:16:21;7.97;;;5.57;;
7031;SDS011;3557;48.880;8.328;2023-04-23T00:18:49;9.80;;;5.72;;
7031;SDS011;3557;48.880;8.328;2023-04-23T00:21:16;6.78;;;5.88;;
7031;SDS011;3557;48.880;8.328;2023-04-23T00:23:44;7.53;;;5.85;;
7031;SDS011;3557;48.880;8.328;2023-04-23T00:26:11;11.35;;;6.20;;
7031;SDS011;3557;48.880;8.328;2023-04-23T00:28:39;7.22;;;6.00;;
7031;SDS011;3557;48.880;8.328;2023-04-23T00:31:06;8.43;;;6.18;;
7031;SDS011;3557;48.880;8.328;2023-04-23T00:33:36;8.20;;;5.93;;
7031;SDS011;3557;48.880;8.328;2023-04-23T00:36:03;10.35;;;5.88;;
7031;SDS011;3557;48.880;8.328;2023-04-23T00:38:32;11.75;;;6.00;;
7031;SDS011;3557;48.880;8.328;2023-04-23T00:40:59;9.13;;;6.15;;
7031;SDS011;3557;48.880;8.328;2023-04-23T00:43:27;8.80;;;6.43;;
7031;SDS011;3557;48.880;8.328;2023-04-23T00:45:55;8.07;;;5.90;;
7031;SDS011;3557;48.880;8.328;2023-04-23T00:48:22;12.60;;;6.80;;
7031;SDS011;3557;48.880;8.328;2023-04-23T00:50:57;9.57;;;6.03;;
7031;SDS011;3557;48.880;8.328;2023-04-23T00:53:25;7.40;;;5.72;;
7031;SDS011;3557;48.880;8.328;2023-04-23T00:55:53;7.55;;;5.40;;
7031;SDS011;3557;48.880;8.328;2023-04-23T00:58:20;10.38;;;5.95;;
7031;SDS011;3557;48.880;8.328;2023-04-23T01:00:48;8.65;;;5.55;;
7031;SDS011;3557;48.880;8.328;2023-04-23T01:03:16;7.72;;;5.43;;
7031;SDS011;3557;48.880;8.328;2023-04-23T01:05:45;7.97;;;5.07;;
7031;SDS011;3557;48.880;8.328;2023-04-23T01:08:16;7.88;;;5.32;;
7031;SDS011;3557;48.880;8.328;2023-04-23T01:10:44;8.02;;;5.10;;
7031;SDS011;3557;48.880;8.328;2023-04-23T01:13:12;6.32;;;4.95;;
7031;SDS011;3557;48.880;8.328;2023-04-23T01:15:41;5.57;;;4.88;;
7031;SDS011;3557;48.880;8.328;2023-04-23T01:18:09;5.40;;;4.28;;
7031;SDS011;3557;48.880;8.328;2023-04-23T01:20:37;6.80;;;4.50;;
7031;SDS011;3557;48.880;8.328;2023-04-23T01:23:06;8.40;;;4.25;;
7031;SDS011;3557;48.880;8.328;2023-04-23T01:25:34;7.35;;;4.38;;
7031;SDS011;3557;48.880;8.328;2023-04-23T01:28:01;4.72;;;3.92;;
7031;SDS011;3557;48.880;8.328;2023-04-23T01:30:28;7.03;;;3.97;;
7031;SDS011;3557;48.880;8.328;2023-04-23T01:32:56;4.68;;;3.58;;
7031;SDS011;3557;48.880;8.328;2023-04-23T01:35:24;4.95;;;3.25;;
7031;SDS011;3557;48.880;8.328;2023-04-23T01:37:51;5.13;;;3.42;;
7031;SDS011;3557;48.880;8.328;2023-04-23T01:40:21;4.47;;;2.97;;
7031;SDS011;3557;48.880;8.328;2023-04-23T01:42:49;3.00;;;2.70;;
7031;SDS011;3557;48.880;8.328;2023-04-23T01:45:16;5.78;;;3.05;;
7031;SDS011;3557;48.880;8.328;2023-04-23T01:47:44;2.70;;;2.50;;
7031;SDS011;3557;48.880;8.328;2023-04-23T01:50:12;5.10;;;2.42;;
7031;SDS011;3557;48.880;8.328;2023-04-23T01:52:40;5.18;;;2.78;;
7031;SDS011;3557;48.880;8.328;2023-04-23T01:55:08;5.13;;;2.97;;
7031;SDS011;3557;48.880;8.328;2023-04-23T01:57:37;3.88;;;2.55;;
7031;SDS011;3557;48.880;8.328;2023-04-23T02:00:06;3.05;;;2.60;;
7031;SDS011;3557;48.880;8.328;2023-04-23T02:02:39;2.80;;;2.38;;
7031;SDS011;3557;48.880;8.328;2023-04-23T02:05:09;3.33;;;2.40;;
7031;SDS011;3557;48.880;8.328;2023-04-23T02:07:38;3.05;;;2.80;;
7031;SDS011;3557;48.880;8.328;2023-04-23T02:10:06;3.75;;;2.30;;
7031;SDS011;3557;48.880;8.328;2023-04-23T02:12:35;2.25;;;2.05;;
7031;SDS011;3557;48.880;8.328;2023-04-23T02:15:05;2.80;;;2.08;;
7031;SDS011;3557;48.880;8.328;2023-04-23T02:17:35;2.47;;;2.15;;
7031;SDS011;3557;48.880;8.328;2023-04-23T02:20:05;2.92;;;2.20;;
7031;SDS011;3557;48.880;8.328;2023-04-23T02:22:35;4.25;;;2.10;;
7031;SDS011;3557;48.880;8.328;2023-04-23T02:25:04;2.47;;;2.00;;
7031;SDS011;3557;48.880;8.328;2023-04-23T02:27:32;3.03;;;2.10;;
7031;SDS011;3557;48.880;8.328;2023-04-23T02:30:02;2.42;;;1.90;;
7031;SDS011;3557;48.880;8.328;2023-04-23T02:32:32;2.03;;;1.85;;
7031;SDS011;3557;48.880;8.328;2023-04-23T02:35:00;2.10;;;1.90;;
7031;SDS011;3557;48.880;8.328;2023-04-23T02:37:27;2.38;;;1.80;;
7031;SDS011;3557;48.880;8.328;2023-04-23T02:39:55;3.10;;;1.90;;
7031;SDS011;3557;48.880;8.328;2023-04-23T02:42:22;2.45;;;1.98;;
7031;SDS011;3557;48.880;8.328;2023-04-23T02:44:50;2.42;;;2.00;;
7031;SDS011;3557;48.880;8.328;2023-04-23T02:47:18;2.55;;;2.10;;
7031;SDS011;3557;48.880;8.328;2023-04-23T02:49:46;2.50;;;2.10;;
7031;SDS011;3557;48.880;8.328;2023-04-23T02:52:13;2.72;;;2.10;;
7031;SDS011;3557;48.880;8.328;2023-04-23T02:54:40;1.95;;;1.85;;
7031;SDS011;3557;48.880;8.328;2023-04-23T02:57:08;3.25;;;2.00;;
7031;SDS011;3557;48.880;8.328;2023-04-23T02:59:38;3.05;;;2.00;;
7031;SDS011;3557;48.880;8.328;2023-04-23T03:02:05;2.38;;;1.90;;
7031;SDS011;3557;48.880;8.328;2023-04-23T03:04:34;2.70;;;2.20;;
7031;SDS011;3557;48.880;8.328;2023-04-23T03:07:02;1.98;;;1.80;;
7031;SDS011;3557;48.880;8.328;2023-04-23T03:09:31;2.20;;;2.00;;
7031;SDS011;3557;48.880;8.328;2023-04-23T03:11:58;2.28;;;2.08;;
7031;SDS011;3557;48.880;8.328;2023-04-23T03:14:26;3.45;;;2.30;;
7031;SDS011;3557;48.880;8.328;2023-04-23T03:16:54;3.58;;;2.28;;
7031;SDS011;3557;48.880;8.328;2023-04-23T03:19:22;4.57;;;2.20;;
7031;SDS011;3557;48.880;8.328;2023-04-23T03:21:51;3.88;;;2.10;;
7031;SDS011;3557;48.880;8.328;2023-04-23T03:24:18;3.58;;;2.03;;
7031;SDS011;3557;48.880;8.328;2023-04-23T03:26:47;3.45;;;2.40;;
7031;SDS011;3557;48.880;8.328;2023-04-23T03:29:14;2.53;;;2.20;;
7031;SDS011;3557;48.880;8.328;2023-04-23T03:31:41;3.63;;;3.00;;
7031;SDS011;3557;48.880;8.328;2023-04-23T03:34:10;2.97;;;2.67;;
7031;SDS011;3557;48.880;8.328;2023-04-23T03:36:37;4.03;;;3.10;;
7031;SDS011;3557;48.880;8.328;2023-04-23T03:39:07;3.95;;;3.53;;
7031;SDS011;3557;48.880;8.328;2023-04-23T03:41:46;3.75;;;3.17;;
7031;SDS011;3557;48.880;8.328;2023-04-23T03:44:15;5.88;;;3.55;;
7031;SDS011;3557;48.880;8.328;2023-04-23T03:46:44;4.60;;;3.35;;
7031;SDS011;3557;48.880;8.328;2023-04-23T03:49:14;4.20;;;3.80;;
7031;SDS011;3557;48.880;8.328;2023-04-23T03:51:42;5.05;;;3.63;;
7031;SDS011;3557;48.880;8.328;2023-04-23T03:54:11;4.57;;;3.83;;
7031;SDS011;3557;48.880;8.328;2023-04-23T03:57:01;5.28;;;3.72;;
7031;SDS011;3557;48.880;8.328;2023-04-23T03:59:33;5.80;;;3.75;;
7031;SDS011;3557;48.880;8.328;2023-04-23T04:02:00;6.18;;;4.35;;
7031;SDS011;3557;48.880;8.328;2023-04-23T04:04:28;7.03;;;3.83;;
7031;SDS011;3557;48.880;8.328;2023-04-23T04:06:55;5.63;;;4.10;;
7031;SDS011;3557;48.880;8.328;2023-04-23T04:09:27;6.85;;;4.70;;
7031;SDS011;3557;48.880;8.328;2023-04-23T04:11:59;4.97;;;3.60;;
7031;SDS011;3557;48.880;8.328;2023-04-23T04:14:28;5.70;;;4.53;;
7031;SDS011;3557;48.880;8.328;2023-04-23T04:16:57;7.28;;;4.10;;
7031;SDS011;3557;48.880;8.328;2023-04-23T04:19:24;10.02;;;7.03;;
7031;SDS011;3557;48.880;8.328;2023-04-23T04:21:51;6.50;;;4.72;;
7031;SDS011;3557;48.880;8.328;2023-04-23T04:24:19;5.95;;;4.40;;
7031;SDS011;3557;48.880;8.328;2023-04-23T04:26:50;7.20;;;4.35;;
7031;SDS011;3557;48.880;8.328;2023-04-23T04:29:18;5.70;;;4.70;;
7031;SDS011;3557;48.880;8.328;2023-04-23T04:31:48;8.27;;;5.03;;
7031;SDS011;3557;48.880;8.328;2023-04-23T04:34:15;6.68;;;4.57;;
7031;SDS011;3557;48.880;8.328;2023-04-23T04:36:42;7.65;;;4.95;;
7031;SDS011;3557;48.880;8.328;2023-04-23T04:39:10;6.95;;;5.22;;
7031;SDS011;3557;48.880;8.328;2023-04-23T04:41:39;9.00;;;5.57;;
7031;SDS011;3557;48.880;8.328;2023-04-23T04:44:08;10.48;;;6.70;;
7031;SDS011;3557;48.880;8.328;2023-04-23T04:46:35;7.68;;;5.13;;
7031;SDS011;3557;48.880;8.328;2023-04-23T04:49:05;7.28;;;5.28;;
7031;SDS011;3557;48.880;8.328;2023-04-23T04:51:33;5.18;;;4.55;;
7031;SDS011;3557;48.880;8.328;2023-04-23T04:54:01;6.35;;;4.60;;
7031;SDS011;3557;48.880;8.328;2023-04-23T04:56:29;7.35;;;5.55;;
7031;SDS011;3557;48.880;8.328;2023-04-23T04:58:56;6.85;;;5.22;;
7031;SDS011;3557;48.880;8.328;2023-04-23T05:01:25;5.28;;;4.50;;
7031;SDS011;3557;48.880;8.328;2023-04-23T05:03:53;5.63;;;4.45;;
7031;SDS011;3557;48.880;8.328;2023-04-23T05:06:21;7.75;;;4.88;;
7031;SDS011;3557;48.880;8.328;2023-04-23T05:08:49;6.10;;;4.28;;
7031;SDS011;3557;48.880;8.328;2023-04-23T05:11:16;6.78;;;4.65;;
7031;SDS011;3557;48.880;8.328;2023-04-23T05:13:45;4.57;;;4.10;;
7031;SDS011;3557;48.880;8.328;2023-04-23T05:16:13;5.68;;;4.15;;
7031;SDS011;3557;48.880;8.328;2023-04-23T05:18:42;6.55;;;4.43;;
7031;SDS011;3557;48.880;8.328;2023-04-23T05:21:09;5.57;;;4.10;;
7031;SDS011;3557;48.880;8.328;2023-04-23T05:23:37;5.40;;;4.18;;
7031;SDS011;3557;48.880;8.328;2023-04-23T05:26:04;6.05;;;4.60;;
7031;SDS011;3557;48.880;8.328;2023-04-23T05:28:32;4.90;;;4.40;;
7031;SDS011;3557;48.880;8.328;2023-04-23T05:30:59;5.50;;;4.03;;
7031;SDS011;3557;48.880;8.328;2023-04-23T05:33:27;5.15;;;3.88;;
7031;SDS011;3557;48.880;8.328;2023-04-23T05:35:57;4.00;;;3.60;;
7031;SDS011;3557;48.880;8.328;2023-04-23T05:38:24;5.97;;;3.53;;
7031;SDS011;3557;48.880;8.328;2023-04-23T05:40:52;4.97;;;3.90;;
7031;SDS011;3557;48.880;8.328;2023-04-23T05:43:19;4.55;;;3.83;;
7031;SDS011;3557;48.880;8.328;2023-04-23T05:45:46;4.65;;;3.70;;
7031;SDS011;3557;48.880;8.328;2023-04-23T05:48:14;4.00;;;3.60;;
7031;SDS011;3557;48.880;8.328;2023-04-23T05:50:41;3.58;;;3.20;;
7031;SDS011;3557;48.880;8.328;2023-04-23T05:53:10;3.47;;;2.83;;
7031;SDS011;3557;48.880;8.328;2023-04-23T05:55:37;3.05;;;2.58;;
7031;SDS011;3557;48.880;8.328;2023-04-23T05:58:05;3.13;;;2.17;;
7031;SDS011;3557;48.880;8.328;2023-04-23T06:00:32;4.18;;;2.40;;
7031;SDS011;3557;48.880;8.328;2023-04-23T06:03:01;2.60;;;2.28;;
7031;SDS011;3557;48.880;8.328;2023-04-23T06:05:28;2.60;;;2.20;;
7031;SDS011;3557;48.880;8.328;2023-04-23T06:07:56;4.93;;;2.20;;
7031;SDS011;3557;48.880;8.328;2023-04-23T06:10:25;2.72;;;2.45;;
7031;SDS011;3557;48.880;8.328;2023-04-23T06:12:52;3.97;;;2.20;;
7031;SDS011;3557;48.880;8.328;2023-04-23T06:15:20;3.42;;;2.55;;
7031;SDS011;3557;48.880;8.328;2023-04-23T06:17:51;3.08;;;2.53;;
7031;SDS011;3557;48.880;8.328;2023-04-23T06:20:18;3.58;;;2.75;;
7031;SDS011;3557;48.880;8.328;2023-04-23T06:22:46;3.22;;;2.92;;
7031;SDS011;3557;48.880;8.328;2023-04-23T06:25:13;3.92;;;3.15;;
7031;SDS011;3557;48.880;8.328;2023-04-23T06:27:42;6.13;;;4.72;;
7031;SDS011;3557;48.880;8.328;2023-04-23T06:30:16;4.25;;;3.08;;
7031;SDS011;3557;48.880;8.328;2023-04-23T06:32:44;4.32;;;3.58;;
7031;SDS011;3557;48.880;8.328;2023-04-23T06:35:12;6.22;;;3.72;;
7031;SDS011;3557;48.880;8.328;2023-04-23T06:37:39;3.35;;;2.70;;
7031;SDS011;3557;48.880;8.328;2023-04-23T06:40:07;5.22;;;3.75;;
7031;SDS011;3557;48.880;8.328;2023-04-23T06:42:35;2.75;;;2.35;;
7031;SDS011;3557;48.880;8.328;2023-04-23T06:45:18;4.53;;;2.05;;
7031;SDS011;3557;48.880;8.328;2023-04-23T06:47:46;3.08;;;2.63;;
7031;SDS011;3557;48.880;8.328;2023-04-23T06:50:14;5.88;;;4.35;;
7031;SDS011;3557;48.880;8.328;2023-04-23T06:52:41;7.05;;;4.30;;
7031;SDS011;3557;48.880;8.328;2023-04-23T06:55:09;3.55;;;3.00;;
7031;SDS011;3557;48.880;8.328;2023-04-23T06:57:37;2.15;;;1.80;;
7031;SDS011;3557;48.880;8.328;2023-04-23T07:00:05;3.47;;;1.65;;
7031;SDS011;3557;48.880;8.328;2023-04-23T07:02:38;3.75;;;1.88;;
7031;SDS011;3557;48.880;8.328;2023-04-23T07:05:06;2.90;;;1.80;;
7031;SDS011;3557;48.880;8.328;2023-04-23T07:07:35;1.83;;;1.60;;
7031;SDS011;3557;48.880;8.328;2023-04-23T07:10:02;1.45;;;1.35;;
7031;SDS011;3557;48.880;8.328;2023-04-23T07:12:31;1.60;;;1.50;;
7031;SDS011;3557;48.880;8.328;2023-04-23T07:14:58;1.52;;;1.30;;
7031;SDS011;3557;48.880;8.328;2023-04-23T07:17:26;1.88;;;1.30;;
7031;SDS011;3557;48.880;8.328;2023-04-23T07:19:54;1.40;;;1.30;;
7031;SDS011;3557;48.880;8.328;2023-04-23T07:22:22;4.05;;;1.83;;
7031;SDS011;3557;48.880;8.328;2023-04-23T07:24:50;3.38;;;1.30;;
7031;SDS011;3557;48.880;8.328;2023-04-23T07:27:18;1.92;;;1.42;;
7031;SDS011;3557;48.880;8.328;2023-04-23T07:29:45;1.40;;;1.30;;
7031;SDS011;3557;48.880;8.328;2023-04-23T07:32:13;1.38;;;1.27;;
7031;SDS011;3557;48.880;8.328;2023-04-23T07:34:40;2.72;;;1.30;;
7031;SDS011;3557;48.880;8.328;2023-04-23T07:37:09;1.50;;;1.35;;
7031;SDS011;3557;48.880;8.328;2023-04-23T07:39:36;3.38;;;1.70;;
7031;SDS011;3557;48.880;8.328;2023-04-23T07:42:04;3.33;;;1.60;;
7031;SDS011;3557;48.880;8.328;2023-04-23T07:44:31;1.40;;;1.30;;
7031;SDS011;3557;48.880;8.328;2023-04-23T07:46:59;2.33;;;1.30;;
7031;SDS011;3557;48.880;8.328;2023-04-23T07:49:26;1.35;;;1.20;;
7031;SDS011;3557;48.880;8.328;2023-04-23T07:51:53;1.85;;;1.60;;
7031;SDS011;3557;48.880;8.328;2023-04-23T07:54:22;1.35;;;1.25;;
7031;SDS011;3557;48.880;8.328;2023-04-23T07:56:49;1.95;;;1.30;;
7031;SDS011;3557;48.880;8.328;2023-04-23T07:59:17;1.35;;;1.27;;
7031;SDS011;3557;48.880;8.328;2023-04-23T08:01:44;1.30;;;1.20;;
7031;SDS011;3557;48.880;8.328;2023-04-23T08:04:12;1.83;;;1.30;;
7031;SDS011;3557;48.880;8.328;2023-04-23T08:06:39;1.75;;;1.30;;
7031;SDS011;3557;48.880;8.328;2023-04-23T08:09:07;2.67;;;1.38;;
7031;SDS011;3557;48.880;8.328;2023-04-23T08:11:36;1.90;;;1.40;;
7031;SDS011;3557;48.880;8.328;2023-04-23T08:14:03;1.40;;;1.30;;
7031;SDS011;3557;48.880;8.328;2023-04-23T08:16:30;1.40;;;1.30;;
7031;SDS011;3557;48.880;8.328;2023-04-23T08:18:58;1.45;;;1.35;;
7031;SDS011;3557;48.880;8.328;2023-04-23T08:21:25;2.05;;;1.48;;
7031;SDS011;3557;48.880;8.328;2023-04-23T08:23:53;1.52;;;1.30;;
7031;SDS011;3557;48.880;8.328;2023-04-23T08:26:21;1.65;;;1.40;;
7031;SDS011;3557;48.880;8.328;2023-04-23T08:28:50;1.50;;;1.40;;
7031;SDS011;3557;48.880;8.328;2023-04-23T08:31:17;3.28;;;1.40;;
7031;SDS011;3557;48.880;8.328;2023-04-23T08:33:44;1.50;;;1.40;;
7031;SDS011;3557;48.880;8.328;2023-04-23T08:36:12;2.13;;;1.45;;
7031;SDS011;3557;48.880;8.328;2023-04-23T08:38:39;2.88;;;1.65;;
7031;SDS011;3557;48.880;8.328;2023-04-23T08:41:08;1.25;;;1.25;;
7031;SDS011;3557;48.880;8.328;2023-04-23T08:43:42;1.75;;;1.42;;
7031;SDS011;3557;48.880;8.328;2023-04-23T08:46:13;1.63;;;1.50;;
7031;SDS011;3557;48.880;8.328;2023-04-23T08:48:42;1.42;;;1.33;;
7031;SDS011;3557;48.880;8.328;2023-04-23T08:51:12;3.20;;;1.85;;
7031;SDS011;3557;48.880;8.328;2023-04-23T08:53:44;1.60;;;1.50;;
7031;SDS011;3557;48.880;8.328;2023-04-23T08:56:16;2.33;;;1.50;;
7031;SDS011;3557;48.880;8.328;2023-04-23T08:58:43;1.95;;;1.60;;
7031;SDS011;3557;48.880;8.328;2023-04-23T09:01:11;3.67;;;1.70;;
7031;SDS011;3557;48.880;8.328;2023-04-23T09:03:40;2.08;;;1.52;;
7031;SDS011;3557;48.880;8.328;2023-04-23T09:06:08;2.53;;;1.60;;
7031;SDS011;3557;48.880;8.328;2023-04-23T09:08:36;1.60;;;1.40;;
7031;SDS011;3557;48.880;8.328;2023-04-23T09:11:04;1.40;;;1.30;;
7031;SDS011;3557;48.880;8.328;2023-04-23T09:13:32;2.72;;;1.42;;
7031;SDS011;3557;48.880;8.328;2023-04-23T09:16:00;1.52;;;1.42;;
7031;SDS011;3557;48.880;8.328;2023-04-23T09:18:28;1.77;;;1.60;;
7031;SDS011;3557;48.880;8.328;2023-04-23T09:20:56;1.60;;;1.50;;
7031;SDS011;3557;48.880;8.328;2023-04-23T09:23:23;1.70;;;1.50;;
7031;SDS011;3557;48.880;8.328;2023-04-23T09:25:51;2.80;;;1.50;;
7031;SDS011;3557;48.880;8.328;2023-04-23T09:28:18;1.40;;;1.30;;
7031;SDS011;3557;48.880;8.328;2023-04-23T09:30:46;1.85;;;1.40;;
7031;SDS011;3557;48.880;8.328;2023-04-23T09:33:15;1.67;;;1.50;;
7031;SDS011;3557;48.880;8.328;2023-04-23T09:35:44;1.63;;;1.30;;
7031;SDS011;3557;48.880;8.328;2023-04-23T09:38:12;2.55;;;1.50;;
7031;SDS011;3557;48.880;8.328;2023-04-23T09:40:39;1.67;;;1.48;;
7031;SDS011;3557;48.880;8.328;2023-04-23T09:43:07;2.88;;;1.50;;
7031;SDS011;3557;48.880;8.328;2023-04-23T09:45:46;2.78;;;1.52;;
7031;SDS011;3557;48.880;8.328;2023-04-23T09:48:14;1.50;;;1.40;;
7031;SDS011;3557;48.880;8.328;2023-04-23T09:50:41;1.50;;;1.40;;
7031;SDS011;3557;48.880;8.328;2023-04-23T09:53:10;1.52;;;1.40;;
7031;SDS011;3557;48.880;8.328;2023-04-23T09:55:40;1.90;;;1.70;;
7031;SDS011;3557;48.880;8.328;2023-04-23T09:58:10;1.70;;;1.30;;
7031;SDS011;3557;48.880;8.328;2023-04-23T10:00:39;1.60;;;1.50;;
7031;SDS011;3557;48.880;8.328;2023-04-23T10:03:07;2.88;;;1.45;;
7031;SDS011;3557;48.880;8.328;2023-04-23T10:05:38;1.30;;;1.20;;
7031;SDS011;3557;48.880;8.328;2023-04-23T10:08:07;1.60;;;1.50;;
7031;SDS011;3557;48.880;8.328;2023-04-23T10:10:36;1.55;;;1.45;;
7031;SDS011;3557;48.880;8.328;2023-04-23T10:13:03;2.85;;;1.40;;
7031;SDS011;3557;48.880;8.328;2023-04-23T10:15:31;1.40;;;1.30;;
7031;SDS011;3557;48.880;8.328;2023-04-23T10:17:59;3.53;;;1.70;;
7031;SDS011;3557;48.880;8.328;2023-04-23T10:20:26;3.53;;;1.50;;
7031;SDS011;3557;48.880;8.328;2023-04-23T10:22:54;1.67;;;1.50;;
7031;SDS011;3557;48.880;8.328;2023-04-23T10:25:22;1.40;;;1.30;;
7031;SDS011;3557;48.880;8.328;2023-04-23T10:27:51;1.85;;;1.55;;
7031;SDS011;3557;48.880;8.328;2023-04-23T10:30:21;1.95;;;1.50;;
7031;SDS011;3557;48.880;8.328;2023-04-23T10:32:48;1.80;;;1.40;;
7031;SDS011;3557;48.880;8.328;2023-04-23T10:35:16;1.30;;;1.20;;
7031;SDS011;3557;48.880;8.328;2023-04-23T10:37:44;2.40;;;1.25;;
7031;SDS011;3557;48.880;8.328;2023-04-23T10:40:13;1.60;;;1.50;;
7031;SDS011;3557;48.880;8.328;2023-04-23T10:42:41;1.50;;;1.40;;
7031;SDS011;3557;48.880;8.328;2023-04-23T10:45:14;1.73;;;1.42;;
7031;SDS011;3557;48.880;8.328;2023-04-23T10:47:43;1.63;;;1.50;;
7031;SDS011;3557;48.880;8.328;2023-04-23T10:50:17;2.72;;;1.30;;
7031;SDS011;3557;48.880;8.328;2023-04-23T10:52:46;2.42;;;1.25;;
7031;SDS011;3557;48.880;8.328;2023-04-23T10:55:18;1.55;;;1.20;;
7031;SDS011;3557;48.880;8.328;2023-04-23T10:57:54;1.40;;;1.30;;
7031;SDS011;3557;48.880;8.328;2023-04-23T11:00:25;1.75;;;1.20;;
7031;SDS011;3557;48.880;8.328;2023-04-23T11:02:53;1.90;;;1.40;;
7031;SDS011;3557;48.880;8.328;2023-04-23T11:05:21;2.15;;;1.40;;
7031;SDS011;3557;48.880;8.328;2023-04-23T11:08:02;1.42;;;1.15;;
7031;SDS011;3557;48.880;8.328;2023-04-23T11:10:31;2.35;;;1.40;;
7031;SDS011;3557;48.880;8.328;2023-04-23T11:15:48;2.08;;;1.45;;
7031;SDS011;3557;48.880;8.328;2023-04-23T11:18:30;1.00;;;1.00;;
7031;SDS011;3557;48.880;8.328;2023-04-23T11:21:00;2.20;;;1.25;;
7031;SDS011;3557;48.880;8.328;2023-04-23T11:23:30;2.65;;;1.42;;
7031;SDS011;3557;48.880;8.328;2023-04-23T11:25:58;1.63;;;1.10;;
7031;SDS011;3557;48.880;8.328;2023-04-23T11:28:26;2.33;;;1.30;;
7031;SDS011;3557;48.880;8.328;2023-04-23T11:30:56;1.10;;;1.10;;
7031;SDS011;3557;48.880;8.328;2023-04-23T11:33:23;1.92;;;1.30;;
7031;SDS011;3557;48.880;8.328;2023-04-23T11:35:51;1.30;;;1.20;;
7031;SDS011;3557;48.880;8.328;2023-04-23T11:38:18;1.17;;;1.10;;
7031;SDS011;3557;48.880;8.328;2023-04-23T11:40:46;1.35;;;1.20;;
7031;SDS011;3557;48.880;8.328;2023-04-23T11:43:18;1.23;;;1.13;;
7031;SDS011;3557;48.880;8.328;2023-04-23T11:45:47;1.10;;;1.10;;
7031;SDS011;3557;48.880;8.328;2023-04-23T11:48:15;3.67;;;1.50;;
7031;SDS011;3557;48.880;8.328;2023-04-23T11:50:43;1.40;;;1.30;;
7031;SDS011;3557;48.880;8.328;2023-04-23T11:53:11;1.98;;;1.10;;
7031;SDS011;3557;48.880;8.328;2023-04-23T11:55:39;1.45;;;1.33;;
7031;SDS011;3557;48.880;8.328;2023-04-23T11:58:08;1.40;;;1.30;;
7031;SDS011;3557;48.880;8.328;2023-04-23T12:00:35;1.30;;;1.20;;
7031;SDS011;3557;48.880;8.328;2023-04-23T12:03:03;1.40;;;1.30;;
7031;SDS011;3557;48.880;8.328;2023-04-23T12:05:33;3.08;;;1.20;;
7031;SDS011;3557;48.880;8.328;2023-04-23T12:08:05;1.27;;;1.17;;
7031;SDS011;3557;48.880;8.328;2023-04-23T12:10:40;1.30;;;1.02;;
7031;SDS011;3557;48.880;8.328;2023-04-23T12:13:12;1.85;;;1.40;;
7031;SDS011;3557;48.880;8.328;2023-04-23T12:15:47;1.27;;;1.17;;
7031;SDS011;3557;48.880;8.328;2023-04-23T12:18:16;1.60;;;1.40;;
7031;SDS011;3557;48.880;8.328;2023-04-23T12:20:45;2.70;;;1.20;;
7031;SDS011;3557;48.880;8.328;2023-04-23T12:23:12;1.60;;;1.33;;
7031;SDS011;3557;48.880;8.328;2023-04-23T12:25:40;2.83;;;1.35;;
7031;SDS011;3557;48.880;8.328;2023-04-23T12:28:07;1.45;;;1.20;;
7031;SDS011;3557;48.880;8.328;2023-04-23T12:30:41;1.80;;;1.30;;
7031;SDS011;3557;48.880;8.328;2023-04-23T12:33:09;1.75;;;1.17;;
7031;SDS011;3557;48.880;8.328;2023-04-23T12:35:40;1.27;;;1.17;;
7031;SDS011;3557;48.880;8.328;2023-04-23T12:38:20;2.10;;;1.10;;
7031;SDS011;3557;48.880;8.328;2023-04-23T12:40:49;1.30;;;1.20;;
7031;SDS011;3557;48.880;8.328;2023-04-23T12:43:17;1.42;;;1.30;;
7031;SDS011;3557;48.880;8.328;2023-04-23T12:45:44;1.20;;;1.17;;
7031;SDS011;3557;48.880;8.328;2023-04-23T12:48:12;1.48;;;1.30;;
7031;SDS011;3557;48.880;8.328;2023-04-23T12:50:40;1.25;;;1.10;;
7031;SDS011;3557;48.880;8.328;2023-04-23T12:53:07;1.48;;;1.00;;
7031;SDS011;3557;48.880;8.328;2023-04-23T12:55:36;1.10;;;1.10;;
7031;SDS011;3557;48.880;8.328;2023-04-23T12:58:04;1.05;;;1.05;;
7031;SDS011;3557;48.880;8.328;2023-04-23T13:00:31;1.23;;;1.02;;
7031;SDS011;3557;48.880;8.328;2023-04-23T13:03:00;1.20;;;1.10;;
7031;SDS011;3557;48.880;8.328;2023-04-23T13:05:27;1.30;;;1.10;;
7031;SDS011;3557;48.880;8.328;2023-04-23T13:07:55;1.08;;;1.02;;
7031;SDS011;3557;48.880;8.328;2023-04-23T13:10:22;1.38;;;1.05;;
7031;SDS011;3557;48.880;8.328;2023-04-23T13:12:51;0.90;;;0.90;;
7031;SDS011;3557;48.880;8.328;2023-04-23T13:15:19;1.38;;;1.17;;
7031;SDS011;3557;48.880;8.328;2023-04-23T13:17:46;1.10;;;1.00;;
7031;SDS011;3557;48.880;8.328;2023-04-23T13:20:13;1.20;;;1.10;;
7031;SDS011;3557;48.880;8.328;2023-04-23T13:22:41;1.73;;;1.05;;
7031;SDS011;3557;48.880;8.328;2023-04-23T13:25:08;0.90;;;0.90;;
7031;SDS011;3557;48.880;8.328;2023-04-23T13:27:36;0.90;;;0.90;;
7031;SDS011;3557;48.880;8.328;2023-04-23T13:30:07;1.00;;;1.00;;
7031;SDS011;3557;48.880;8.328;2023-04-23T13:32:35;1.45;;;0.90;;
7031;SDS011;3557;48.880;8.328;2023-04-23T13:35:06;1.02;;;1.02;;
7031;SDS011;3557;48.880;8.328;2023-04-23T13:37:34;1.00;;;0.95;;
7031;SDS011;3557;48.880;8.328;2023-04-23T13:40:13;1.02;;;0.95;;
7031;SDS011;3557;48.880;8.328;2023-04-23T13:42:43;2.55;;;1.10;;
7031;SDS011;3557;48.880;8.328;2023-04-23T13:45:13;1.30;;;1.08;;
7031;SDS011;3557;48.880;8.328;2023-04-23T13:47:49;2.15;;;1.10;;
7031;SDS011;3557;48.880;8.328;2023-04-23T13:50:16;0.93;;;0.90;;
7031;SDS011;3557;48.880;8.328;2023-04-23T13:52:44;1.00;;;1.00;;
7031;SDS011;3557;48.880;8.328;2023-04-23T13:55:12;1.35;;;1.08;;
7031;SDS011;3557;48.880;8.328;2023-04-23T13:57:39;1.27;;;0.90;;
7031;SDS011;3557;48.880;8.328;2023-04-23T14:00:07;1.17;;;0.90;;
7031;SDS011;3557;48.880;8.328;2023-04-23T14:02:38;0.93;;;0.88;;
7031;SDS011;3557;48.880;8.328;2023-04-23T14:05:05;1.17;;;1.00;;
7031;SDS011;3557;48.880;8.328;2023-04-23T14:07:33;0.90;;;0.90;;
7031;SDS011;3557;48.880;8.328;2023-04-23T14:10:01;1.00;;;1.00;;
7031;SDS011;3557;48.880;8.328;2023-04-23T14:12:29;2.15;;;0.90;;
7031;SDS011;3557;48.880;8.328;2023-04-23T14:14:57;1.00;;;1.00;;
7031;SDS011;3557;48.880;8.328;2023-04-23T14:17:24;1.42;;;1.20;;
7031;SDS011;3557;48.880;8.328;2023-04-23T14:19:53;1.15;;;1.10;;
7031;SDS011;3557;48.880;8.328;2023-04-23T14:22:20;0.98;;;0.90;;
7031;SDS011;3557;48.880;8.328;2023-04-23T14:24:48;0.98;;;0.90;;
7031;SDS011;3557;48.880;8.328;2023-04-23T14:27:16;0.90;;;0.80;;
7031;SDS011;3557;48.880;8.328;2023-04-23T14:29:44;1.70;;;0.93;;
7031;SDS011;3557;48.880;8.328;2023-04-23T14:32:17;1.90;;;1.00;;
7031;SDS011;3557;48.880;8.328;2023-04-23T14:34:44;0.95;;;0.93;;
7031;SDS011;3557;48.880;8.328;2023-04-23T14:37:13;1.50;;;1.20;;
7031;SDS011;3557;48.880;8.328;2023-04-23T14:39:41;3.22;;;1.23;;
7031;SDS011;3557;48.880;8.328;2023-04-23T14:42:10;1.67;;;1.00;;
7031;SDS011;3557;48.880;8.328;2023-04-23T14:44:38;1.30;;;1.20;;
7031;SDS011;3557;48.880;8.328;2023-04-23T14:47:05;2.90;;;1.25;;
7031;SDS011;3557;48.880;8.328;2023-04-23T14:49:35;0.95;;;0.82;;
7031;SDS011;3557;48.880;8.328;2023-04-23T14:52:04;0.90;;;0.90;;
7031;SDS011;3557;48.880;8.328;2023-04-23T14:54:33;2.42;;;1.00;;
7031;SDS011;3557;48.880;8.328;2023-04-23T14:57:01;1.67;;;1.23;;
7031;SDS011;3557;48.880;8.328;2023-04-23T14:59:29;1.75;;;1.17;;
7031;SDS011;3557;48.880;8.328;2023-04-23T15:01:56;2.92;;;1.10;;
7031;SDS011;3557;48.880;8.328;2023-04-23T15:04:26;3.45;;;1.20;;
7031;SDS011;3557;48.880;8.328;2023-04-23T15:06:53;0.93;;;0.85;;
7031;SDS011;3557;48.880;8.328;2023-04-23T15:09:20;1.17;;;1.10;;
7031;SDS011;3557;48.880;8.328;2023-04-23T15:11:49;1.27;;;1.05;;
7031;SDS011;3557;48.880;8.328;2023-04-23T15:14:18;2.83;;;1.20;;
7031;SDS011;3557;48.880;8.328;2023-04-23T15:16:50;1.75;;;0.98;;
7031;SDS011;3557;48.880;8.328;2023-04-23T15:19:18;1.48;;;1.02;;
7031;SDS011;3557;48.880;8.328;2023-04-23T15:21:46;2.00;;;1.33;;
7031;SDS011;3557;48.880;8.328;2023-04-23T15:24:13;1.23;;;1.10;;
7031;SDS011;3557;48.880;8.328;2023-04-23T15:26:41;1.10;;;1.10;;